sensor_id;sensor_type;location;lat;lon;timestamp;temperature;humidity
1355;DHT22;671;48.972;9.276;2023-03-01T00:02:10;-0.60;99.90
1355;DHT22;671;48.972;9.276;2023-03-01T00:04:37;-0.60;99.90
1355;DHT22;671;48.972;9.276;2023-03-01T00:07:03;-0.60;99.90
1355;DHT22;671;48.972;9.276;2023-03-01T00:09:30;-0.60;99.90
1355;DHT22;671;48.972;9.276;2023-03-01T00:11:56;-0.70;99.90
1355;DHT22;671;48.972;9.276;2023-03-01T00:14:23;-0.70;99.90
1355;DHT22;671;48.972;9.276;2023-03-01T00:16:49;-0.70;99.90
1355;DHT22;671;48.972;9.276;2023-03-01T00:19:17;-0.70;99.90
1355;DHT22;671;48.972;9.276;2023-03-01T00:21:44;-0.60;99.90
1355;DHT22;671;48.972;9.276;2023-03-01T00:24:11;-0.60;99.90
1355;DHT22;671;48.972;9.276;2023-03-01T00:26:38;-0.50;99.90
1355;DHT22;671;48.972;9.276;2023-03-01T00:29:04;-0.40;99.90
1355;DHT22;671;48.972;9.276;2023-03-01T00:31:32;-0.40;99.90
1355;DHT22;671;48.972;9.276;2023-03-01T00:34:01;-0.40;99.90
1355;DHT22;671;48.972;9.276;2023-03-01T00:36:31;-0.30;92.10
1355;DHT22;671;48.972;9.276;2023-03-01T00:38:58;-0.30;9.30
1355;DHT22;671;48.972;9.276;2023-03-01T00:41:24;-0.30;92.00
1355;DHT22;671;48.972;9.276;2023-03-01T00:43:53;-0.30;38.20
1355;DHT22;671;48.972;9.276;2023-03-01T00:46:22;-0.40;1.00
1355;DHT22;671;48.972;9.276;2023-03-01T00:48:49;-0.50;1.00
1355;DHT22;671;48.972;9.276;2023-03-01T00:51:21;-0.50;92.20
1355;DHT22;671;48.972;9.276;2023-03-01T00:53:51;-0.60;92.60
1355;DHT22;671;48.972;9.276;2023-03-01T00:56:18;-0.60;99.90
1355;DHT22;671;48.972;9.276;2023-03-01T00:58:44;-0.70;99.90
1355;DHT22;671;48.972;9.276;2023-03-01T01:01:16;-0.70;99.90
1355;DHT22;671;48.972;9.276;2023-03-01T01:03:55;-0.80;99.90
1355;DHT22;671;48.972;9.276;2023-03-01T01:06:27;-0.80;99.90
1355;DHT22;671;48.972;9.276;2023-03-01T01:08:55;-0.80;99.90
1355;DHT22;671;48.972;9.276;2023-03-01T01:11:23;-0.80;99.90
1355;DHT22;671;48.972;9.276;2023-03-01T01:13:51;-0.80;99.90
1355;DHT22;671;48.972;9.276;2023-03-01T01:16:19;-0.90;99.90
1355;DHT22;671;48.972;9.276;2023-03-01T01:18:46;-0.90;99.90
1355;DHT22;671;48.972;9.276;2023-03-01T01:21:16;-0.70;99.90
1355;DHT22;671;48.972;9.276;2023-03-01T01:23:43;-0.90;99.90
1355;DHT22;671;48.972;9.276;2023-03-01T01:26:19;-0.90;99.90
1355;DHT22;671;48.972;9.276;2023-03-01T01:28:46;-0.90;99.90
1355;DHT22;671;48.972;9.276;2023-03-01T01:31:13;-0.90;99.90
1355;DHT22;671;48.972;9.276;2023-03-01T01:33:40;-0.90;99.90
1355;DHT22;671;48.972;9.276;2023-03-01T01:36:08;-0.90;99.90
1355;DHT22;671;48.972;9.276;2023-03-01T01:38:35;-0.90;99.90
1355;DHT22;671;48.972;9.276;2023-03-01T01:41:03;-0.90;99.90
1355;DHT22;671;48.972;9.276;2023-03-01T01:43:33;-0.80;99.90
1355;DHT22;671;48.972;9.276;2023-03-01T01:46:30;-0.80;99.90
1355;DHT22;671;48.972;9.276;2023-03-01T01:49:02;-0.80;99.90
1355;DHT22;671;48.972;9.276;2023-03-01T01:51:39;-0.80;99.90
1355;DHT22;671;48.972;9.276;2023-03-01T01:54:14;-0.70;99.90
1355;DHT22;671;48.972;9.276;2023-03-01T01:56:45;-0.60;99.90
1355;DHT22;671;48.972;9.276;2023-03-01T01:59:12;-0.50;99.90
1355;DHT22;671;48.972;9.276;2023-03-01T02:01:39;-0.50;99.90
1355;DHT22;671;48.972;9.276;2023-03-01T02:04:06;-0.50;99.90
1355;DHT22;671;48.972;9.276;2023-03-01T02:06:41;-0.50;99.90
1355;DHT22;671;48.972;9.276;2023-03-01T02:09:13;-0.50;99.90
1355;DHT22;671;48.972;9.276;2023-03-01T02:11:40;-0.50;99.90
1355;DHT22;671;48.972;9.276;2023-03-01T02:14:06;-0.50;99.90
1355;DHT22;671;48.972;9.276;2023-03-01T02:16:33;-0.40;99.90
1355;DHT22;671;48.972;9.276;2023-03-01T02:18:59;-0.30;99.90
1355;DHT22;671;48.972;9.276;2023-03-01T02:21:37;-0.30;99.90
1355;DHT22;671;48.972;9.276;2023-03-01T02:26:55;-0.10;99.90
1355;DHT22;671;48.972;9.276;2023-03-01T02:29:23;0.00;99.90
1355;DHT22;671;48.972;9.276;2023-03-01T02:31:51;0.00;99.90
1355;DHT22;671;48.972;9.276;2023-03-01T02:34:22;0.00;99.90
1355;DHT22;671;48.972;9.276;2023-03-01T02:36:52;0.10;99.90
1355;DHT22;671;48.972;9.276;2023-03-01T02:39:33;0.20;83.00
1355;DHT22;671;48.972;9.276;2023-03-01T02:42:02;0.40;1.00
1355;DHT22;671;48.972;9.276;2023-03-01T02:44:30;0.50;1.00
1355;DHT22;671;48.972;9.276;2023-03-01T02:46:59;0.60;1.00
1355;DHT22;671;48.972;9.276;2023-03-01T02:49:29;0.70;1.00
1355;DHT22;671;48.972;9.276;2023-03-01T02:53:03;0.70;1.00
1355;DHT22;671;48.972;9.276;2023-03-01T02:55:11;0.80;1.00
1355;DHT22;671;48.972;9.276;2023-03-01T02:57:40;0.90;1.00
1355;DHT22;671;48.972;9.276;2023-03-01T03:00:21;1.00;99.90
1355;DHT22;671;48.972;9.276;2023-03-01T03:02:50;1.10;99.90
1355;DHT22;671;48.972;9.276;2023-03-01T03:05:20;1.10;14.70
1355;DHT22;671;48.972;9.276;2023-03-01T03:07:48;1.20;1.00
1355;DHT22;671;48.972;9.276;2023-03-01T03:10:23;1.20;1.00
1355;DHT22;671;48.972;9.276;2023-03-01T03:13:02;1.30;1.00
1355;DHT22;671;48.972;9.276;2023-03-01T03:15:29;1.30;99.90
1355;DHT22;671;48.972;9.276;2023-03-01T03:17:57;1.40;99.90
1355;DHT22;671;48.972;9.276;2023-03-01T03:20:26;1.40;1.00
1355;DHT22;671;48.972;9.276;2023-03-01T03:22:54;1.40;1.00
1355;DHT22;671;48.972;9.276;2023-03-01T03:25:22;1.40;1.00
1355;DHT22;671;48.972;9.276;2023-03-01T03:27:50;1.50;1.00
1355;DHT22;671;48.972;9.276;2023-03-01T03:30:25;1.50;1.00
1355;DHT22;671;48.972;9.276;2023-03-01T03:32:52;1.50;99.90
1355;DHT22;671;48.972;9.276;2023-03-01T03:37:51;1.50;99.90
1355;DHT22;671;48.972;9.276;2023-03-01T03:43:02;1.50;1.00
1355;DHT22;671;48.972;9.276;2023-03-01T03:45:29;1.50;1.00
1355;DHT22;671;48.972;9.276;2023-03-01T03:47:55;1.50;1.00
1355;DHT22;671;48.972;9.276;2023-03-01T03:50:22;1.50;1.00
1355;DHT22;671;48.972;9.276;2023-03-01T03:52:48;1.50;1.00
1355;DHT22;671;48.972;9.276;2023-03-01T03:55:15;1.50;1.00
1355;DHT22;671;48.972;9.276;2023-03-01T03:57:47;1.50;1.00
1355;DHT22;671;48.972;9.276;2023-03-01T04:00:19;1.50;1.00
1355;DHT22;671;48.972;9.276;2023-03-01T04:02:47;1.50;1.00
1355;DHT22;671;48.972;9.276;2023-03-01T04:05:16;1.50;1.00
1355;DHT22;671;48.972;9.276;2023-03-01T04:07:43;1.50;1.00
1355;DHT22;671;48.972;9.276;2023-03-01T04:10:12;1.50;1.00
1355;DHT22;671;48.972;9.276;2023-03-01T04:12:38;1.50;1.00
1355;DHT22;671;48.972;9.276;2023-03-01T04:15:06;1.40;1.00
1355;DHT22;671;48.972;9.276;2023-03-01T04:17:43;1.40;1.00
1355;DHT22;671;48.972;9.276;2023-03-01T04:20:12;1.40;1.00
1355;DHT22;671;48.972;9.276;2023-03-01T04:22:40;1.40;1.00
1355;DHT22;671;48.972;9.276;2023-03-01T04:25:06;1.30;1.00
1355;DHT22;671;48.972;9.276;2023-03-01T04:27:34;1.30;1.00
1355;DHT22;671;48.972;9.276;2023-03-01T04:30:01;1.20;1.00
1355;DHT22;671;48.972;9.276;2023-03-01T04:32:28;1.20;1.00
1355;DHT22;671;48.972;9.276;2023-03-01T04:34:54;1.20;1.00
1355;DHT22;671;48.972;9.276;2023-03-01T04:37:21;1.20;1.00
1355;DHT22;671;48.972;9.276;2023-03-01T04:39:47;1.20;1.00
1355;DHT22;671;48.972;9.276;2023-03-01T04:42:17;1.10;1.00
1355;DHT22;671;48.972;9.276;2023-03-01T04:44:45;1.10;1.00
1355;DHT22;671;48.972;9.276;2023-03-01T04:47:11;1.10;1.00
1355;DHT22;671;48.972;9.276;2023-03-01T04:49:38;1.00;99.90
1355;DHT22;671;48.972;9.276;2023-03-01T04:52:05;1.00;99.90
1355;DHT22;671;48.972;9.276;2023-03-01T04:54:32;0.90;99.90
1355;DHT22;671;48.972;9.276;2023-03-01T04:57:00;0.90;99.90
1355;DHT22;671;48.972;9.276;2023-03-01T04:59:26;0.90;1.00
1355;DHT22;671;48.972;9.276;2023-03-01T05:01:54;0.90;1.00
1355;DHT22;671;48.972;9.276;2023-03-01T05:04:24;0.90;1.00
1355;DHT22;671;48.972;9.276;2023-03-01T05:06:51;0.90;1.00
1355;DHT22;671;48.972;9.276;2023-03-01T05:09:19;0.90;1.00
1355;DHT22;671;48.972;9.276;2023-03-01T05:11:46;0.80;1.00
1355;DHT22;671;48.972;9.276;2023-03-01T05:14:12;0.80;99.90
1355;DHT22;671;48.972;9.276;2023-03-01T05:16:39;0.70;99.90
1355;DHT22;671;48.972;9.276;2023-03-01T05:19:05;0.60;99.90
1355;DHT22;671;48.972;9.276;2023-03-01T05:21:41;0.50;99.90
1355;DHT22;671;48.972;9.276;2023-03-01T05:24:28;0.40;1.00
1355;DHT22;671;48.972;9.276;2023-03-01T05:26:55;0.30;1.00
1355;DHT22;671;48.972;9.276;2023-03-01T05:29:23;0.30;1.00
1355;DHT22;671;48.972;9.276;2023-03-01T05:31:57;0.20;50.70
1355;DHT22;671;48.972;9.276;2023-03-01T05:34:33;0.10;99.90
1355;DHT22;671;48.972;9.276;2023-03-01T05:37:00;0.10;99.90
1355;DHT22;671;48.972;9.276;2023-03-01T05:39:28;0.00;1.00
1355;DHT22;671;48.972;9.276;2023-03-01T05:41:57;-0.10;1.00
1355;DHT22;671;48.972;9.276;2023-03-01T05:44:24;-0.10;1.00
1355;DHT22;671;48.972;9.276;2023-03-01T05:46:51;-0.10;1.00
1355;DHT22;671;48.972;9.276;2023-03-01T05:49:17;-0.10;1.00
1355;DHT22;671;48.972;9.276;2023-03-01T05:51:49;-0.10;1.00
1355;DHT22;671;48.972;9.276;2023-03-01T05:54:16;-0.10;1.00
1355;DHT22;671;48.972;9.276;2023-03-01T05:56:44;0.00;1.00
1355;DHT22;671;48.972;9.276;2023-03-01T05:59:10;0.10;1.00
1355;DHT22;671;48.972;9.276;2023-03-01T06:01:37;0.10;1.00
1355;DHT22;671;48.972;9.276;2023-03-01T06:04:04;0.20;1.00
1355;DHT22;671;48.972;9.276;2023-03-01T06:06:34;0.20;1.00
1355;DHT22;671;48.972;9.276;2023-03-01T06:09:04;0.30;1.00
1355;DHT22;671;48.972;9.276;2023-03-01T06:11:34;0.30;1.00
1355;DHT22;671;48.972;9.276;2023-03-01T06:14:01;0.40;1.00
1355;DHT22;671;48.972;9.276;2023-03-01T06:16:27;0.40;1.00
1355;DHT22;671;48.972;9.276;2023-03-01T06:18:54;0.40;99.90
1355;DHT22;671;48.972;9.276;2023-03-01T06:21:20;0.40;1.00
1355;DHT22;671;48.972;9.276;2023-03-01T06:23:47;0.40;1.00
1355;DHT22;671;48.972;9.276;2023-03-01T06:26:13;0.40;99.90
1355;DHT22;671;48.972;9.276;2023-03-01T06:28:39;0.40;99.90
1355;DHT22;671;48.972;9.276;2023-03-01T06:31:06;0.40;1.00
1355;DHT22;671;48.972;9.276;2023-03-01T06:33:35;0.30;1.00
1355;DHT22;671;48.972;9.276;2023-03-01T06:36:02;0.30;1.00
1355;DHT22;671;48.972;9.276;2023-03-01T06:38:29;0.20;1.00
1355;DHT22;671;48.972;9.276;2023-03-01T06:40:55;0.20;1.00
1355;DHT22;671;48.972;9.276;2023-03-01T06:43:23;0.20;1.00
1355;DHT22;671;48.972;9.276;2023-03-01T06:45:50;0.20;1.00
1355;DHT22;671;48.972;9.276;2023-03-01T06:48:17;0.20;1.00
1355;DHT22;671;48.972;9.276;2023-03-01T06:50:43;0.20;1.00
1355;DHT22;671;48.972;9.276;2023-03-01T06:53:10;0.20;1.00
1355;DHT22;671;48.972;9.276;2023-03-01T06:55:36;0.20;1.00
1355;DHT22;671;48.972;9.276;2023-03-01T06:58:03;0.20;1.00
1355;DHT22;671;48.972;9.276;2023-03-01T07:00:30;0.20;1.00
1355;DHT22;671;48.972;9.276;2023-03-01T07:03:01;0.20;1.00
1355;DHT22;671;48.972;9.276;2023-03-01T07:05:29;0.30;1.00
1355;DHT22;671;48.972;9.276;2023-03-01T07:07:56;0.30;1.00
1355;DHT22;671;48.972;9.276;2023-03-01T07:10:23;0.40;1.00
1355;DHT22;671;48.972;9.276;2023-03-01T07:12:50;0.40;1.00
1355;DHT22;671;48.972;9.276;2023-03-01T07:15:17;0.40;1.00
1355;DHT22;671;48.972;9.276;2023-03-01T07:17:43;0.50;1.00
1355;DHT22;671;48.972;9.276;2023-03-01T07:20:11;0.50;1.00
1355;DHT22;671;48.972;9.276;2023-03-01T07:22:40;0.60;99.90
1355;DHT22;671;48.972;9.276;2023-03-01T07:25:07;0.60;1.00
1355;DHT22;671;48.972;9.276;2023-03-01T07:27:34;0.70;99.90
1355;DHT22;671;48.972;9.276;2023-03-01T07:30:00;0.80;1.00
1355;DHT22;671;48.972;9.276;2023-03-01T07:32:27;0.80;1.00
1355;DHT22;671;48.972;9.276;2023-03-01T07:34:53;0.90;1.00
1355;DHT22;671;48.972;9.276;2023-03-01T07:37:20;0.90;99.90
1355;DHT22;671;48.972;9.276;2023-03-01T07:39:46;1.00;1.00
1355;DHT22;671;48.972;9.276;2023-03-01T07:42:12;1.10;1.00
1355;DHT22;671;48.972;9.276;2023-03-01T07:44:39;1.10;99.90
1355;DHT22;671;48.972;9.276;2023-03-01T07:47:05;1.20;63.00
1355;DHT22;671;48.972;9.276;2023-03-01T07:49:32;1.30;1.00
1355;DHT22;671;48.972;9.276;2023-03-01T07:51:58;1.30;1.00
1355;DHT22;671;48.972;9.276;2023-03-01T07:54:25;1.40;99.90
1355;DHT22;671;48.972;9.276;2023-03-01T07:56:52;1.50;99.90
1355;DHT22;671;48.972;9.276;2023-03-01T07:59:20;1.50;1.00
1355;DHT22;671;48.972;9.276;2023-03-01T08:01:47;1.60;1.00
1355;DHT22;671;48.972;9.276;2023-03-01T08:04:13;1.60;1.00
1355;DHT22;671;48.972;9.276;2023-03-01T08:06:40;1.70;1.00
1355;DHT22;671;48.972;9.276;2023-03-01T08:09:06;1.70;99.90
1355;DHT22;671;48.972;9.276;2023-03-01T08:11:34;1.80;99.90
1355;DHT22;671;48.972;9.276;2023-03-01T08:14:00;1.80;99.90
1355;DHT22;671;48.972;9.276;2023-03-01T08:16:27;1.90;99.90
1355;DHT22;671;48.972;9.276;2023-03-01T08:18:53;2.00;1.00
1355;DHT22;671;48.972;9.276;2023-03-01T08:21:22;2.10;1.00
1355;DHT22;671;48.972;9.276;2023-03-01T08:23:49;2.10;1.00
1355;DHT22;671;48.972;9.276;2023-03-01T08:26:18;2.20;1.00
1355;DHT22;671;48.972;9.276;2023-03-01T08:28:46;2.20;1.00
1355;DHT22;671;48.972;9.276;2023-03-01T08:31:20;2.30;1.00
1355;DHT22;671;48.972;9.276;2023-03-01T08:33:49;2.40;1.00
1355;DHT22;671;48.972;9.276;2023-03-01T08:36:29;2.50;99.90
1355;DHT22;671;48.972;9.276;2023-03-01T08:38:56;2.60;99.90
1355;DHT22;671;48.972;9.276;2023-03-01T08:41:23;2.60;99.90
1355;DHT22;671;48.972;9.276;2023-03-01T08:43:50;2.60;99.90
1355;DHT22;671;48.972;9.276;2023-03-01T08:46:17;2.70;99.90
1355;DHT22;671;48.972;9.276;2023-03-01T08:48:43;2.80;99.90
1355;DHT22;671;48.972;9.276;2023-03-01T08:51:18;2.80;67.80
1355;DHT22;671;48.972;9.276;2023-03-01T08:53:46;2.90;1.00
1355;DHT22;671;48.972;9.276;2023-03-01T08:56:13;3.00;1.00
1355;DHT22;671;48.972;9.276;2023-03-01T08:58:46;3.00;1.00
1355;DHT22;671;48.972;9.276;2023-03-01T09:01:18;3.00;1.00
1355;DHT22;671;48.972;9.276;2023-03-01T09:03:45;3.10;1.00
1355;DHT22;671;48.972;9.276;2023-03-01T09:06:12;3.20;1.00
1355;DHT22;671;48.972;9.276;2023-03-01T09:08:47;3.20;1.00
1355;DHT22;671;48.972;9.276;2023-03-01T09:11:16;3.40;1.00
1355;DHT22;671;48.972;9.276;2023-03-01T09:13:44;3.50;1.00
1355;DHT22;671;48.972;9.276;2023-03-01T09:16:12;3.60;1.00
1355;DHT22;671;48.972;9.276;2023-03-01T09:18:39;3.60;1.00
1355;DHT22;671;48.972;9.276;2023-03-01T09:21:14;3.70;1.00
1355;DHT22;671;48.972;9.276;2023-03-01T09:23:46;3.80;1.00
1355;DHT22;671;48.972;9.276;2023-03-01T09:26:20;3.80;99.90
1355;DHT22;671;48.972;9.276;2023-03-01T09:28:49;3.90;99.90
1355;DHT22;671;48.972;9.276;2023-03-01T09:31:17;3.90;99.90
1355;DHT22;671;48.972;9.276;2023-03-01T09:33:47;4.00;99.90
1355;DHT22;671;48.972;9.276;2023-03-01T09:36:17;4.20;99.90
1355;DHT22;671;48.972;9.276;2023-03-01T09:38:44;4.20;99.90
1355;DHT22;671;48.972;9.276;2023-03-01T09:46:14;4.40;99.90
1355;DHT22;671;48.972;9.276;2023-03-01T09:48:50;4.50;99.90
1355;DHT22;671;48.972;9.276;2023-03-01T09:51:24;4.50;95.20
1355;DHT22;671;48.972;9.276;2023-03-01T09:53:52;4.60;69.00
1355;DHT22;671;48.972;9.276;2023-03-01T09:56:27;4.70;5.30
1355;DHT22;671;48.972;9.276;2023-03-01T10:09:45;5.20;1.00
1355;DHT22;671;48.972;9.276;2023-03-01T10:12:19;5.30;1.00
1355;DHT22;671;48.972;9.276;2023-03-01T10:14:50;5.40;1.00
1355;DHT22;671;48.972;9.276;2023-03-01T10:22:48;5.60;1.00
1355;DHT22;671;48.972;9.276;2023-03-01T10:25:56;5.60;1.00
1355;DHT22;671;48.972;9.276;2023-03-01T10:28:24;5.70;1.00
1355;DHT22;671;48.972;9.276;2023-03-01T10:30:52;5.70;1.00
1355;DHT22;671;48.972;9.276;2023-03-01T10:33:25;5.70;1.00
1355;DHT22;671;48.972;9.276;2023-03-01T10:35:52;5.90;1.00
1355;DHT22;671;48.972;9.276;2023-03-01T10:38:19;6.00;1.00
1355;DHT22;671;48.972;9.276;2023-03-01T10:40:57;6.00;1.00
1355;DHT22;671;48.972;9.276;2023-03-01T10:43:26;6.10;1.00
1355;DHT22;671;48.972;9.276;2023-03-01T10:45:53;6.20;1.00
1355;DHT22;671;48.972;9.276;2023-03-01T10:48:20;6.30;1.00
1355;DHT22;671;48.972;9.276;2023-03-01T10:53:30;6.30;1.00
1355;DHT22;671;48.972;9.276;2023-03-01T10:55:59;6.40;1.00
1355;DHT22;671;48.972;9.276;2023-03-01T10:58:26;6.50;1.00
1355;DHT22;671;48.972;9.276;2023-03-01T11:00:58;6.50;1.00
1355;DHT22;671;48.972;9.276;2023-03-01T11:03:27;6.60;1.00
1355;DHT22;671;48.972;9.276;2023-03-01T11:08:47;6.80;1.00
1355;DHT22;671;48.972;9.276;2023-03-01T11:11:31;6.90;1.00
1355;DHT22;671;48.972;9.276;2023-03-01T11:13:59;7.00;1.00
1355;DHT22;671;48.972;9.276;2023-03-01T11:19:13;7.10;1.00
1355;DHT22;671;48.972;9.276;2023-03-01T11:24:45;7.20;1.00
1355;DHT22;671;48.972;9.276;2023-03-01T11:27:25;7.20;1.00
1355;DHT22;671;48.972;9.276;2023-03-01T11:30:18;7.30;1.00
1355;DHT22;671;48.972;9.276;2023-03-01T11:35:25;7.40;99.90
1355;DHT22;671;48.972;9.276;2023-03-01T11:38:03;7.50;1.00
1355;DHT22;671;48.972;9.276;2023-03-01T11:40:39;7.60;99.90
1355;DHT22;671;48.972;9.276;2023-03-01T12:00:20;7.90;99.90
1355;DHT22;671;48.972;9.276;2023-03-01T12:03:11;8.00;99.90
1355;DHT22;671;48.972;9.276;2023-03-01T12:05:52;8.10;99.90
1355;DHT22;671;48.972;9.276;2023-03-01T12:08:41;8.10;99.90
1355;DHT22;671;48.972;9.276;2023-03-01T12:27:44;8.60;99.90
1355;DHT22;671;48.972;9.276;2023-03-01T12:33:07;8.70;99.90
1355;DHT22;671;48.972;9.276;2023-03-01T12:35:58;8.60;99.90
1355;DHT22;671;48.972;9.276;2023-03-01T12:38:41;8.70;99.90
1355;DHT22;671;48.972;9.276;2023-03-01T12:41:37;8.80;99.90
1355;DHT22;671;48.972;9.276;2023-03-01T12:44:33;8.80;99.90
1355;DHT22;671;48.972;9.276;2023-03-01T12:47:14;8.80;99.90
1355;DHT22;671;48.972;9.276;2023-03-01T12:49:51;8.70;99.90
1355;DHT22;671;48.972;9.276;2023-03-01T12:52:29;8.80;99.90
1355;DHT22;671;48.972;9.276;2023-03-01T12:55:01;8.80;99.90
1355;DHT22;671;48.972;9.276;2023-03-01T12:57:39;8.80;99.90
1355;DHT22;671;48.972;9.276;2023-03-01T13:03:19;8.70;99.90
1355;DHT22;671;48.972;9.276;2023-03-01T13:06:12;8.80;99.90
1355;DHT22;671;48.972;9.276;2023-03-01T13:09:05;8.80;99.90
1355;DHT22;671;48.972;9.276;2023-03-01T13:11:35;8.80;99.90
1355;DHT22;671;48.972;9.276;2023-03-01T13:16:47;8.90;99.90
1355;DHT22;671;48.972;9.276;2023-03-01T13:19:17;8.90;99.90
1355;DHT22;671;48.972;9.276;2023-03-01T13:21:46;8.90;99.90
1355;DHT22;671;48.972;9.276;2023-03-01T13:24:41;9.00;99.90
1355;DHT22;671;48.972;9.276;2023-03-01T13:29:57;8.90;99.90
1355;DHT22;671;48.972;9.276;2023-03-01T13:32:37;8.90;99.90
1355;DHT22;671;48.972;9.276;2023-03-01T13:37:41;9.00;99.90
1355;DHT22;671;48.972;9.276;2023-03-01T13:42:51;9.10;99.90
1355;DHT22;671;48.972;9.276;2023-03-01T13:47:56;9.10;99.90
1355;DHT22;671;48.972;9.276;2023-03-01T13:50:28;9.10;99.90
1355;DHT22;671;48.972;9.276;2023-03-01T13:53:01;9.20;99.90
1355;DHT22;671;48.972;9.276;2023-03-01T13:55:46;9.20;99.90
1355;DHT22;671;48.972;9.276;2023-03-01T13:58:44;9.20;99.90
1355;DHT22;671;48.972;9.276;2023-03-01T14:01:38;9.20;99.90
1355;DHT22;671;48.972;9.276;2023-03-01T14:04:30;9.20;99.90
1355;DHT22;671;48.972;9.276;2023-03-01T14:07:21;9.20;99.90
1355;DHT22;671;48.972;9.276;2023-03-01T14:09:54;9.30;99.90
1355;DHT22;671;48.972;9.276;2023-03-01T14:12:48;9.30;99.90
1355;DHT22;671;48.972;9.276;2023-03-01T14:15:32;9.30;99.90
1355;DHT22;671;48.972;9.276;2023-03-01T14:21:12;9.30;99.90
1355;DHT22;671;48.972;9.276;2023-03-01T14:23:41;9.30;99.90
1355;DHT22;671;48.972;9.276;2023-03-01T14:26:08;9.30;99.90
1355;DHT22;671;48.972;9.276;2023-03-01T14:28:36;9.20;99.90
1355;DHT22;671;48.972;9.276;2023-03-01T14:33:55;9.30;99.90
1355;DHT22;671;48.972;9.276;2023-03-01T14:36:28;9.30;99.90
1355;DHT22;671;48.972;9.276;2023-03-01T14:38:54;9.30;99.90
1355;DHT22;671;48.972;9.276;2023-03-01T14:41:23;9.20;99.90
1355;DHT22;671;48.972;9.276;2023-03-01T14:43:53;9.20;99.90
1355;DHT22;671;48.972;9.276;2023-03-01T14:46:37;9.20;99.90
1355;DHT22;671;48.972;9.276;2023-03-01T14:49:11;9.20;99.90
1355;DHT22;671;48.972;9.276;2023-03-01T14:51:41;9.20;99.90
1355;DHT22;671;48.972;9.276;2023-03-01T14:54:41;9.20;99.90
1355;DHT22;671;48.972;9.276;2023-03-01T14:57:23;9.20;99.90
1355;DHT22;671;48.972;9.276;2023-03-01T14:59:55;9.20;99.90
1355;DHT22;671;48.972;9.276;2023-03-01T15:02:25;9.10;99.90
1355;DHT22;671;48.972;9.276;2023-03-01T15:04:55;9.10;99.90
1355;DHT22;671;48.972;9.276;2023-03-01T15:07:30;9.00;99.90
1355;DHT22;671;48.972;9.276;2023-03-01T15:09:58;9.00;99.90
1355;DHT22;671;48.972;9.276;2023-03-01T15:12:34;9.00;99.90
1355;DHT22;671;48.972;9.276;2023-03-01T15:15:01;8.90;99.90
1355;DHT22;671;48.972;9.276;2023-03-01T15:17:35;8.90;99.90
1355;DHT22;671;48.972;9.276;2023-03-01T15:20:05;8.90;99.90
1355;DHT22;671;48.972;9.276;2023-03-01T15:22:33;8.90;99.90
1355;DHT22;671;48.972;9.276;2023-03-01T15:25:01;8.90;99.90
1355;DHT22;671;48.972;9.276;2023-03-01T15:27:27;8.90;99.90
1355;DHT22;671;48.972;9.276;2023-03-01T15:30:01;8.90;99.90
1355;DHT22;671;48.972;9.276;2023-03-01T15:32:33;8.90;99.90
1355;DHT22;671;48.972;9.276;2023-03-01T15:35:31;8.80;99.90
1355;DHT22;671;48.972;9.276;2023-03-01T15:37:48;8.90;99.90
1355;DHT22;671;48.972;9.276;2023-03-01T15:40:27;8.80;99.90
1355;DHT22;671;48.972;9.276;2023-03-01T15:42:58;8.70;99.90
1355;DHT22;671;48.972;9.276;2023-03-01T15:45:27;8.70;99.90
1355;DHT22;671;48.972;9.276;2023-03-01T15:47:56;8.70;99.90
1355;DHT22;671;48.972;9.276;2023-03-01T15:52:53;8.60;99.90
1355;DHT22;671;48.972;9.276;2023-03-01T15:55:23;8.60;99.90
1355;DHT22;671;48.972;9.276;2023-03-01T15:57:58;8.50;99.90
1355;DHT22;671;48.972;9.276;2023-03-01T16:00:27;8.40;99.90
1355;DHT22;671;48.972;9.276;2023-03-01T16:02:53;8.40;99.90
1355;DHT22;671;48.972;9.276;2023-03-01T16:05:32;8.40;99.90
1355;DHT22;671;48.972;9.276;2023-03-01T16:07:58;8.30;99.90
1355;DHT22;671;48.972;9.276;2023-03-01T16:10:27;8.30;99.90
1355;DHT22;671;48.972;9.276;2023-03-01T16:12:53;8.30;99.90
1355;DHT22;671;48.972;9.276;2023-03-01T16:17:54;8.20;99.90
1355;DHT22;671;48.972;9.276;2023-03-01T16:20:22;8.10;99.90
1355;DHT22;671;48.972;9.276;2023-03-01T16:22:49;8.10;99.90
1355;DHT22;671;48.972;9.276;2023-03-01T16:25:17;8.00;99.90
1355;DHT22;671;48.972;9.276;2023-03-01T16:27:46;8.00;99.90
1355;DHT22;671;48.972;9.276;2023-03-01T16:30:14;7.90;99.90
1355;DHT22;671;48.972;9.276;2023-03-01T16:32:43;7.80;99.90
1355;DHT22;671;48.972;9.276;2023-03-01T16:35:11;7.80;99.90
1355;DHT22;671;48.972;9.276;2023-03-01T16:37:38;7.70;99.90
1355;DHT22;671;48.972;9.276;2023-03-01T16:40:09;7.70;99.90
1355;DHT22;671;48.972;9.276;2023-03-01T16:42:41;7.60;99.90
1355;DHT22;671;48.972;9.276;2023-03-01T16:45:09;7.50;99.90
1355;DHT22;671;48.972;9.276;2023-03-01T16:47:35;7.40;99.90
1355;DHT22;671;48.972;9.276;2023-03-01T16:50:02;7.30;99.90
1355;DHT22;671;48.972;9.276;2023-03-01T16:52:28;7.30;99.90
1355;DHT22;671;48.972;9.276;2023-03-01T16:54:55;7.20;99.90
1355;DHT22;671;48.972;9.276;2023-03-01T16:57:21;7.10;99.90
1355;DHT22;671;48.972;9.276;2023-03-01T16:59:51;7.00;99.90
1355;DHT22;671;48.972;9.276;2023-03-01T17:02:19;6.90;99.90
1355;DHT22;671;48.972;9.276;2023-03-01T17:04:54;6.80;99.90
1355;DHT22;671;48.972;9.276;2023-03-01T17:07:21;6.70;99.90
1355;DHT22;671;48.972;9.276;2023-03-01T17:09:48;6.60;99.90
1355;DHT22;671;48.972;9.276;2023-03-01T17:12:15;6.50;99.90
1355;DHT22;671;48.972;9.276;2023-03-01T17:14:42;6.40;99.90
1355;DHT22;671;48.972;9.276;2023-03-01T17:17:09;6.30;99.90
1355;DHT22;671;48.972;9.276;2023-03-01T17:19:36;6.20;99.90
1355;DHT22;671;48.972;9.276;2023-03-01T17:22:07;6.20;99.90
1355;DHT22;671;48.972;9.276;2023-03-01T17:24:36;6.10;99.90
1355;DHT22;671;48.972;9.276;2023-03-01T17:27:02;6.00;99.90
1355;DHT22;671;48.972;9.276;2023-03-01T17:29:29;5.90;99.90
1355;DHT22;671;48.972;9.276;2023-03-01T17:31:56;5.90;99.90
1355;DHT22;671;48.972;9.276;2023-03-01T17:34:23;5.80;99.90
1355;DHT22;671;48.972;9.276;2023-03-01T17:36:50;5.80;99.90
1355;DHT22;671;48.972;9.276;2023-03-01T17:39:18;5.70;99.90
1355;DHT22;671;48.972;9.276;2023-03-01T17:41:51;5.60;99.90
1355;DHT22;671;48.972;9.276;2023-03-01T17:44:18;5.60;99.90
1355;DHT22;671;48.972;9.276;2023-03-01T17:46:44;5.50;99.90
1355;DHT22;671;48.972;9.276;2023-03-01T17:49:11;5.50;99.90
1355;DHT22;671;48.972;9.276;2023-03-01T17:51:38;5.40;1.00
1355;DHT22;671;48.972;9.276;2023-03-01T17:54:04;5.40;1.00
1355;DHT22;671;48.972;9.276;2023-03-01T17:56:31;5.30;1.00
1355;DHT22;671;48.972;9.276;2023-03-01T17:58:59;5.30;1.00
1355;DHT22;671;48.972;9.276;2023-03-01T18:01:26;5.20;1.00
1355;DHT22;671;48.972;9.276;2023-03-01T18:03:53;5.10;1.00
1355;DHT22;671;48.972;9.276;2023-03-01T18:06:23;5.10;1.00
1355;DHT22;671;48.972;9.276;2023-03-01T18:08:49;5.00;1.00
1355;DHT22;671;48.972;9.276;2023-03-01T18:11:17;5.00;1.00
1355;DHT22;671;48.972;9.276;2023-03-01T18:13:45;5.00;1.00
1355;DHT22;671;48.972;9.276;2023-03-01T18:16:15;4.90;1.00
1355;DHT22;671;48.972;9.276;2023-03-01T18:18:42;4.90;1.00
1355;DHT22;671;48.972;9.276;2023-03-01T18:21:11;4.90;1.00
1355;DHT22;671;48.972;9.276;2023-03-01T18:23:38;4.80;1.00
1355;DHT22;671;48.972;9.276;2023-03-01T18:26:10;4.80;1.00
1355;DHT22;671;48.972;9.276;2023-03-01T18:28:38;4.80;1.00
1355;DHT22;671;48.972;9.276;2023-03-01T18:31:09;4.70;1.00
1355;DHT22;671;48.972;9.276;2023-03-01T18:33:39;4.70;1.00
1355;DHT22;671;48.972;9.276;2023-03-01T18:36:16;4.70;1.00
1355;DHT22;671;48.972;9.276;2023-03-01T18:38:44;4.60;1.00
1355;DHT22;671;48.972;9.276;2023-03-01T18:41:10;4.60;1.00
1355;DHT22;671;48.972;9.276;2023-03-01T18:43:37;4.60;1.00
1355;DHT22;671;48.972;9.276;2023-03-01T18:46:03;4.50;1.00
1355;DHT22;671;48.972;9.276;2023-03-01T18:48:30;4.50;1.00